sensor_id;sensor_type;location;lat;lon;timestamp;temperature;humidity
28763;DHT22;15918;51.270;6.522;2023-06-22T00:01:53;26.80;48.80
28763;DHT22;15918;51.270;6.522;2023-06-22T00:04:18;26.70;48.80
28763;DHT22;15918;51.270;6.522;2023-06-22T00:06:44;26.70;48.90
28763;DHT22;15918;51.270;6.522;2023-06-22T00:09:09;26.70;49.00
28763;DHT22;15918;51.270;6.522;2023-06-22T00:11:36;26.70;49.10
28763;DHT22;15918;51.270;6.522;2023-06-22T00:14:02;26.70;49.10
28763;DHT22;15918;51.270;6.522;2023-06-22T00:16:28;26.70;49.20
28763;DHT22;15918;51.270;6.522;2023-06-22T00:18:54;26.70;49.20
28763;DHT22;15918;51.270;6.522;2023-06-22T00:21:19;26.70;49.30
28763;DHT22;15918;51.270;6.522;2023-06-22T00:23:47;26.70;49.30
28763;DHT22;15918;51.270;6.522;2023-06-22T00:26:13;26.70;49.40
28763;DHT22;15918;51.270;6.522;2023-06-22T00:28:39;26.60;49.50
28763;DHT22;15918;51.270;6.522;2023-06-22T00:31:04;26.60;49.70
28763;DHT22;15918;51.270;6.522;2023-06-22T00:33:30;26.60;49.70
28763;DHT22;15918;51.270;6.522;2023-06-22T00:35:57;26.60;49.80
28763;DHT22;15918;51.270;6.522;2023-06-22T00:38:22;26.60;49.90
28763;DHT22;15918;51.270;6.522;2023-06-22T00:40:48;26.60;50.00
28763;DHT22;15918;51.270;6.522;2023-06-22T00:43:14;26.60;50.10
28763;DHT22;15918;51.270;6.522;2023-06-22T00:45:39;26.60;50.10
28763;DHT22;15918;51.270;6.522;2023-06-22T00:48:06;26.60;50.20
28763;DHT22;15918;51.270;6.522;2023-06-22T00:50:33;26.60;50.30
28763;DHT22;15918;51.270;6.522;2023-06-22T00:53:01;26.60;50.30
28763;DHT22;15918;51.270;6.522;2023-06-22T00:55:29;26.50;50.40
28763;DHT22;15918;51.270;6.522;2023-06-22T00:57:55;26.50;50.50
28763;DHT22;15918;51.270;6.522;2023-06-22T01:00:25;26.50;50.40
28763;DHT22;15918;51.270;6.522;2023-06-22T01:02:53;26.50;50.50
28763;DHT22;15918;51.270;6.522;2023-06-22T01:05:20;26.50;50.60
28763;DHT22;15918;51.270;6.522;2023-06-22T01:10:44;26.50;50.80
28763;DHT22;15918;51.270;6.522;2023-06-22T01:15:53;26.50;50.80
28763;DHT22;15918;51.270;6.522;2023-06-22T01:18:22;26.40;50.80
28763;DHT22;15918;51.270;6.522;2023-06-22T01:20:54;26.40;50.90
28763;DHT22;15918;51.270;6.522;2023-06-22T01:28:45;26.40;51.00
28763;DHT22;15918;51.270;6.522;2023-06-22T01:31:14;26.40;51.00
28763;DHT22;15918;51.270;6.522;2023-06-22T01:33:43;26.40;51.10
28763;DHT22;15918;51.270;6.522;2023-06-22T01:36:09;26.30;51.00
28763;DHT22;15918;51.270;6.522;2023-06-22T01:38:37;26.30;51.10
28763;DHT22;15918;51.270;6.522;2023-06-22T01:41:04;26.30;51.10
28763;DHT22;15918;51.270;6.522;2023-06-22T01:43:30;26.30;51.20
28763;DHT22;15918;51.270;6.522;2023-06-22T01:45:56;26.30;51.20
28763;DHT22;15918;51.270;6.522;2023-06-22T01:48:23;26.30;51.30
28763;DHT22;15918;51.270;6.522;2023-06-22T01:50:49;26.30;51.40
28763;DHT22;15918;51.270;6.522;2023-06-22T01:53:14;26.30;51.50
28763;DHT22;15918;51.270;6.522;2023-06-22T01:55:40;26.30;51.50
28763;DHT22;15918;51.270;6.522;2023-06-22T01:58:06;26.20;51.40
28763;DHT22;15918;51.270;6.522;2023-06-22T02:00:34;26.30;51.50
28763;DHT22;15918;51.270;6.522;2023-06-22T02:03:11;26.30;51.60
28763;DHT22;15918;51.270;6.522;2023-06-22T02:05:46;26.20;51.60
28763;DHT22;15918;51.270;6.522;2023-06-22T02:08:20;26.20;51.70
28763;DHT22;15918;51.270;6.522;2023-06-22T02:10:47;26.20;51.70
28763;DHT22;15918;51.270;6.522;2023-06-22T02:13:14;26.20;51.80
28763;DHT22;15918;51.270;6.522;2023-06-22T02:15:41;26.20;51.80
28763;DHT22;15918;51.270;6.522;2023-06-22T02:18:07;26.20;51.80
28763;DHT22;15918;51.270;6.522;2023-06-22T02:20:36;26.20;51.90
28763;DHT22;15918;51.270;6.522;2023-06-22T02:23:01;26.10;51.70
28763;DHT22;15918;51.270;6.522;2023-06-22T02:25:27;26.20;51.80
28763;DHT22;15918;51.270;6.522;2023-06-22T02:27:52;26.10;51.80
28763;DHT22;15918;51.270;6.522;2023-06-22T02:30:18;26.10;51.80
28763;DHT22;15918;51.270;6.522;2023-06-22T02:32:43;26.10;51.80
28763;DHT22;15918;51.270;6.522;2023-06-22T02:35:10;26.10;51.80
28763;DHT22;15918;51.270;6.522;2023-06-22T02:37:36;26.20;51.90
28763;DHT22;15918;51.270;6.522;2023-06-22T02:40:08;26.10;51.80
28763;DHT22;15918;51.270;6.522;2023-06-22T02:42:37;26.10;51.90
28763;DHT22;15918;51.270;6.522;2023-06-22T02:45:03;26.10;52.10
28763;DHT22;15918;51.270;6.522;2023-06-22T02:47:29;26.10;52.10
28763;DHT22;15918;51.270;6.522;2023-06-22T02:49:54;26.10;52.00
28763;DHT22;15918;51.270;6.522;2023-06-22T02:52:20;26.10;52.10
28763;DHT22;15918;51.270;6.522;2023-06-22T02:54:46;26.10;52.10
28763;DHT22;15918;51.270;6.522;2023-06-22T02:57:12;26.10;52.20
28763;DHT22;15918;51.270;6.522;2023-06-22T02:59:42;26.10;52.20
28763;DHT22;15918;51.270;6.522;2023-06-22T03:02:08;26.00;52.20
28763;DHT22;15918;51.270;6.522;2023-06-22T03:04:35;26.10;52.30
28763;DHT22;15918;51.270;6.522;2023-06-22T03:07:00;26.00;52.30
28763;DHT22;15918;51.270;6.522;2023-06-22T03:09:27;26.00;52.40
28763;DHT22;15918;51.270;6.522;2023-06-22T03:11:53;26.00;52.50
28763;DHT22;15918;51.270;6.522;2023-06-22T03:14:19;26.00;52.50
28763;DHT22;15918;51.270;6.522;2023-06-22T03:16:45;26.00;52.40
28763;DHT22;15918;51.270;6.522;2023-06-22T03:19:10;26.00;52.50
28763;DHT22;15918;51.270;6.522;2023-06-22T03:21:37;26.00;52.60
28763;DHT22;15918;51.270;6.522;2023-06-22T03:24:04;26.00;52.60
28763;DHT22;15918;51.270;6.522;2023-06-22T03:26:30;26.00;52.50
28763;DHT22;15918;51.270;6.522;2023-06-22T03:28:56;26.00;52.50
28763;DHT22;15918;51.270;6.522;2023-06-22T03:31:22;26.00;52.60
28763;DHT22;15918;51.270;6.522;2023-06-22T03:33:48;26.00;52.60
28763;DHT22;15918;51.270;6.522;2023-06-22T03:36:15;26.00;52.60
28763;DHT22;15918;51.270;6.522;2023-06-22T03:38:48;25.90;52.60
28763;DHT22;15918;51.270;6.522;2023-06-22T03:41:14;25.90;52.60
28763;DHT22;15918;51.270;6.522;2023-06-22T03:43:39;25.90;52.60
28763;DHT22;15918;51.270;6.522;2023-06-22T03:46:05;25.90;52.70
28763;DHT22;15918;51.270;6.522;2023-06-22T03:48:31;25.90;52.70
28763;DHT22;15918;51.270;6.522;2023-06-22T03:50:56;25.90;52.70
28763;DHT22;15918;51.270;6.522;2023-06-22T03:53:22;25.90;52.80
28763;DHT22;15918;51.270;6.522;2023-06-22T03:55:49;25.90;52.90
28763;DHT22;15918;51.270;6.522;2023-06-22T03:58:16;25.90;52.90
28763;DHT22;15918;51.270;6.522;2023-06-22T04:00:42;25.90;53.50
28763;DHT22;15918;51.270;6.522;2023-06-22T04:03:07;25.90;52.90
28763;DHT22;15918;51.270;6.522;2023-06-22T04:05:33;25.80;52.90
28763;DHT22;15918;51.270;6.522;2023-06-22T04:07:59;25.80;52.90
28763;DHT22;15918;51.270;6.522;2023-06-22T04:10:24;25.80;52.90
28763;DHT22;15918;51.270;6.522;2023-06-22T04:12:50;25.80;53.00
28763;DHT22;15918;51.270;6.522;2023-06-22T04:15:15;25.80;53.00
28763;DHT22;15918;51.270;6.522;2023-06-22T04:17:41;25.80;53.00
28763;DHT22;15918;51.270;6.522;2023-06-22T04:20:07;25.80;53.00
28763;DHT22;15918;51.270;6.522;2023-06-22T04:22:33;25.80;53.10
28763;DHT22;15918;51.270;6.522;2023-06-22T04:24:58;25.80;53.10
28763;DHT22;15918;51.270;6.522;2023-06-22T04:27:24;25.80;53.30
28763;DHT22;15918;51.270;6.522;2023-06-22T04:29:49;25.80;53.10
28763;DHT22;15918;51.270;6.522;2023-06-22T04:32:16;25.80;53.30
28763;DHT22;15918;51.270;6.522;2023-06-22T04:34:42;25.70;53.30
28763;DHT22;15918;51.270;6.522;2023-06-22T04:37:08;25.80;53.40
28763;DHT22;15918;51.270;6.522;2023-06-22T04:39:34;25.70;53.40
28763;DHT22;15918;51.270;6.522;2023-06-22T04:42:00;25.70;53.40
28763;DHT22;15918;51.270;6.522;2023-06-22T04:44:26;25.80;53.40
28763;DHT22;15918;51.270;6.522;2023-06-22T04:46:52;25.70;53.40
28763;DHT22;15918;51.270;6.522;2023-06-22T04:49:34;25.70;53.40
28763;DHT22;15918;51.270;6.522;2023-06-22T04:52:07;25.70;53.40
28763;DHT22;15918;51.270;6.522;2023-06-22T04:54:34;25.70;53.50
28763;DHT22;15918;51.270;6.522;2023-06-22T04:57:03;25.70;53.60
28763;DHT22;15918;51.270;6.522;2023-06-22T04:59:30;25.70;53.60
28763;DHT22;15918;51.270;6.522;2023-06-22T05:01:57;25.70;53.70
28763;DHT22;15918;51.270;6.522;2023-06-22T05:04:23;25.70;53.80
28763;DHT22;15918;51.270;6.522;2023-06-22T05:06:50;25.70;53.80
28763;DHT22;15918;51.270;6.522;2023-06-22T05:09:16;25.70;53.90
28763;DHT22;15918;51.270;6.522;2023-06-22T05:11:42;25.70;54.00
28763;DHT22;15918;51.270;6.522;2023-06-22T05:14:08;25.70;54.20
28763;DHT22;15918;51.270;6.522;2023-06-22T05:16:34;25.70;54.30
28763;DHT22;15918;51.270;6.522;2023-06-22T05:18:59;25.70;54.50
28763;DHT22;15918;51.270;6.522;2023-06-22T05:21:26;25.70;54.60
28763;DHT22;15918;51.270;6.522;2023-06-22T05:23:53;25.70;55.00
28763;DHT22;15918;51.270;6.522;2023-06-22T05:26:19;25.70;55.10
28763;DHT22;15918;51.270;6.522;2023-06-22T05:28:45;25.70;55.10
28763;DHT22;15918;51.270;6.522;2023-06-22T05:31:15;25.60;55.10
28763;DHT22;15918;51.270;6.522;2023-06-22T05:33:42;25.70;55.20
28763;DHT22;15918;51.270;6.522;2023-06-22T05:36:08;25.60;55.30
28763;DHT22;15918;51.270;6.522;2023-06-22T05:38:34;25.60;55.20
28763;DHT22;15918;51.270;6.522;2023-06-22T05:41:00;25.70;55.30
28763;DHT22;15918;51.270;6.522;2023-06-22T05:43:25;25.60;55.10
28763;DHT22;15918;51.270;6.522;2023-06-22T05:45:51;25.60;55.30
28763;DHT22;15918;51.270;6.522;2023-06-22T05:48:17;25.60;55.40
28763;DHT22;15918;51.270;6.522;2023-06-22T05:50:42;25.60;55.40
28763;DHT22;15918;51.270;6.522;2023-06-22T05:53:08;25.70;55.50
28763;DHT22;15918;51.270;6.522;2023-06-22T05:55:34;25.60;55.50
28763;DHT22;15918;51.270;6.522;2023-06-22T05:57:59;25.60;55.50
28763;DHT22;15918;51.270;6.522;2023-06-22T06:00:25;25.60;55.50
28763;DHT22;15918;51.270;6.522;2023-06-22T06:02:51;25.60;55.50
28763;DHT22;15918;51.270;6.522;2023-06-22T06:05:16;25.60;55.30
28763;DHT22;15918;51.270;6.522;2023-06-22T06:07:43;25.60;55.40
28763;DHT22;15918;51.270;6.522;2023-06-22T06:10:09;25.60;55.50
28763;DHT22;15918;51.270;6.522;2023-06-22T06:12:35;25.60;55.40
28763;DHT22;15918;51.270;6.522;2023-06-22T06:15:01;25.60;55.30
28763;DHT22;15918;51.270;6.522;2023-06-22T06:17:27;25.60;55.40
28763;DHT22;15918;51.270;6.522;2023-06-22T06:19:52;25.60;55.40
28763;DHT22;15918;51.270;6.522;2023-06-22T06:22:18;25.60;55.30
28763;DHT22;15918;51.270;6.522;2023-06-22T06:24:45;25.60;55.20
28763;DHT22;15918;51.270;6.522;2023-06-22T06:27:11;25.60;55.20
28763;DHT22;15918;51.270;6.522;2023-06-22T06:29:37;25.60;55.30
28763;DHT22;15918;51.270;6.522;2023-06-22T06:32:02;25.60;55.00
28763;DHT22;15918;51.270;6.522;2023-06-22T06:34:29;25.60;55.00
28763;DHT22;15918;51.270;6.522;2023-06-22T06:36:54;25.60;55.00
28763;DHT22;15918;51.270;6.522;2023-06-22T06:39:20;25.60;55.00
28763;DHT22;15918;51.270;6.522;2023-06-22T06:41:46;25.60;55.00
28763;DHT22;15918;51.270;6.522;2023-06-22T06:44:11;25.60;54.80
28763;DHT22;15918;51.270;6.522;2023-06-22T06:46:37;25.60;54.90
28763;DHT22;15918;51.270;6.522;2023-06-22T06:49:03;25.60;54.90
28763;DHT22;15918;51.270;6.522;2023-06-22T06:51:29;25.60;55.00
28763;DHT22;15918;51.270;6.522;2023-06-22T06:53:54;25.60;55.10
28763;DHT22;15918;51.270;6.522;2023-06-22T06:56:20;25.60;55.00
28763;DHT22;15918;51.270;6.522;2023-06-22T06:58:49;25.60;54.80
28763;DHT22;15918;51.270;6.522;2023-06-22T07:01:14;25.60;54.90
28763;DHT22;15918;51.270;6.522;2023-06-22T07:03:43;25.60;54.80
28763;DHT22;15918;51.270;6.522;2023-06-22T07:06:13;25.60;54.70
28763;DHT22;15918;51.270;6.522;2023-06-22T07:08:38;25.60;54.80
28763;DHT22;15918;51.270;6.522;2023-06-22T07:11:05;25.60;54.80
28763;DHT22;15918;51.270;6.522;2023-06-22T07:13:31;25.60;54.80
28763;DHT22;15918;51.270;6.522;2023-06-22T07:15:56;25.60;54.70
28763;DHT22;15918;51.270;6.522;2023-06-22T07:18:22;25.60;54.70
28763;DHT22;15918;51.270;6.522;2023-06-22T07:20:47;25.60;54.90
28763;DHT22;15918;51.270;6.522;2023-06-22T07:23:13;25.60;55.00
28763;DHT22;15918;51.270;6.522;2023-06-22T07:25:39;25.60;55.10
28763;DHT22;15918;51.270;6.522;2023-06-22T07:28:06;25.60;55.30
28763;DHT22;15918;51.270;6.522;2023-06-22T07:30:32;25.60;55.60
28763;DHT22;15918;51.270;6.522;2023-06-22T07:32:58;25.60;55.50
28763;DHT22;15918;51.270;6.522;2023-06-22T07:35:28;25.60;55.60
28763;DHT22;15918;51.270;6.522;2023-06-22T07:37:54;25.60;55.90
28763;DHT22;15918;51.270;6.522;2023-06-22T07:40:20;25.60;56.10
28763;DHT22;15918;51.270;6.522;2023-06-22T07:42:45;25.60;56.10
28763;DHT22;15918;51.270;6.522;2023-06-22T07:45:13;25.60;56.10
28763;DHT22;15918;51.270;6.522;2023-06-22T07:47:39;25.60;56.30
28763;DHT22;15918;51.270;6.522;2023-06-22T07:50:06;25.60;56.80
28763;DHT22;15918;51.270;6.522;2023-06-22T07:52:32;25.60;56.60
28763;DHT22;15918;51.270;6.522;2023-06-22T07:54:58;25.60;56.50
28763;DHT22;15918;51.270;6.522;2023-06-22T07:57:23;25.60;57.00
28763;DHT22;15918;51.270;6.522;2023-06-22T07:59:57;25.60;56.90
28763;DHT22;15918;51.270;6.522;2023-06-22T08:02:23;25.60;56.90
28763;DHT22;15918;51.270;6.522;2023-06-22T08:04:49;25.60;57.20
28763;DHT22;15918;51.270;6.522;2023-06-22T08:07:15;25.60;57.30
28763;DHT22;15918;51.270;6.522;2023-06-22T08:09:46;25.60;57.50
28763;DHT22;15918;51.270;6.522;2023-06-22T08:12:12;25.60;57.40
28763;DHT22;15918;51.270;6.522;2023-06-22T08:14:38;25.60;57.60
28763;DHT22;15918;51.270;6.522;2023-06-22T08:17:04;25.60;57.40
28763;DHT22;15918;51.270;6.522;2023-06-22T08:19:30;25.60;57.40
28763;DHT22;15918;51.270;6.522;2023-06-22T08:21:56;25.60;57.40
28763;DHT22;15918;51.270;6.522;2023-06-22T08:24:22;25.60;57.30
28763;DHT22;15918;51.270;6.522;2023-06-22T08:26:51;25.60;57.40
28763;DHT22;15918;51.270;6.522;2023-06-22T08:29:17;25.60;57.60
28763;DHT22;15918;51.270;6.522;2023-06-22T08:31:42;25.70;57.70
28763;DHT22;15918;51.270;6.522;2023-06-22T08:34:08;25.70;57.60
28763;DHT22;15918;51.270;6.522;2023-06-22T08:36:34;25.70;57.60
28763;DHT22;15918;51.270;6.522;2023-06-22T08:39:03;25.70;57.50
28763;DHT22;15918;51.270;6.522;2023-06-22T08:41:29;25.70;57.60
28763;DHT22;15918;51.270;6.522;2023-06-22T08:43:55;25.70;57.70
28763;DHT22;15918;51.270;6.522;2023-06-22T08:46:21;25.70;57.70
28763;DHT22;15918;51.270;6.522;2023-06-22T08:48:49;25.80;57.80
28763;DHT22;15918;51.270;6.522;2023-06-22T08:51:16;25.80;58.00
28763;DHT22;15918;51.270;6.522;2023-06-22T08:53:42;25.80;58.00
28763;DHT22;15918;51.270;6.522;2023-06-22T08:56:08;25.80;57.90
28763;DHT22;15918;51.270;6.522;2023-06-22T08:58:33;25.80;57.80
28763;DHT22;15918;51.270;6.522;2023-06-22T09:00:59;25.80;57.90
28763;DHT22;15918;51.270;6.522;2023-06-22T09:03:26;25.80;57.90
28763;DHT22;15918;51.270;6.522;2023-06-22T09:05:52;25.90;58.00
28763;DHT22;15918;51.270;6.522;2023-06-22T09:08:18;25.90;58.00
28763;DHT22;15918;51.270;6.522;2023-06-22T09:10:43;25.90;57.90
28763;DHT22;15918;51.270;6.522;2023-06-22T09:13:09;26.00;58.00
28763;DHT22;15918;51.270;6.522;2023-06-22T09:15:34;26.00;58.00
28763;DHT22;15918;51.270;6.522;2023-06-22T09:18:00;26.00;58.00
28763;DHT22;15918;51.270;6.522;2023-06-22T09:20:26;26.00;58.00
28763;DHT22;15918;51.270;6.522;2023-06-22T09:22:51;26.10;58.10
28763;DHT22;15918;51.270;6.522;2023-06-22T09:25:17;26.10;57.90
28763;DHT22;15918;51.270;6.522;2023-06-22T09:27:46;26.10;57.80
28763;DHT22;15918;51.270;6.522;2023-06-22T09:30:12;26.20;57.80
28763;DHT22;15918;51.270;6.522;2023-06-22T09:32:37;26.20;57.70
28763;DHT22;15918;51.270;6.522;2023-06-22T09:35:05;26.30;57.70
28763;DHT22;15918;51.270;6.522;2023-06-22T09:37:35;26.30;57.70
28763;DHT22;15918;51.270;6.522;2023-06-22T09:40:01;26.30;57.60
28763;DHT22;15918;51.270;6.522;2023-06-22T09:42:29;26.40;57.50
28763;DHT22;15918;51.270;6.522;2023-06-22T09:44:55;26.40;57.50
28763;DHT22;15918;51.270;6.522;2023-06-22T09:47:21;26.40;57.40
28763;DHT22;15918;51.270;6.522;2023-06-22T09:49:46;26.40;57.50
28763;DHT22;15918;51.270;6.522;2023-06-22T09:52:12;26.50;57.50
28763;DHT22;15918;51.270;6.522;2023-06-22T09:54:38;26.50;57.40
28763;DHT22;15918;51.270;6.522;2023-06-22T09:57:04;26.60;57.30
28763;DHT22;15918;51.270;6.522;2023-06-22T09:59:29;26.60;57.20
28763;DHT22;15918;51.270;6.522;2023-06-22T10:01:55;26.60;57.10
28763;DHT22;15918;51.270;6.522;2023-06-22T10:04:20;26.70;57.00
28763;DHT22;15918;51.270;6.522;2023-06-22T10:06:46;26.70;56.90
28763;DHT22;15918;51.270;6.522;2023-06-22T10:09:12;26.70;56.70
28763;DHT22;15918;51.270;6.522;2023-06-22T10:11:37;26.80;56.70
28763;DHT22;15918;51.270;6.522;2023-06-22T10:14:03;26.80;56.60
28763;DHT22;15918;51.270;6.522;2023-06-22T10:16:33;26.80;56.60
28763;DHT22;15918;51.270;6.522;2023-06-22T10:18:59;26.90;56.70
28763;DHT22;15918;51.270;6.522;2023-06-22T10:21:24;26.90;56.60
28763;DHT22;15918;51.270;6.522;2023-06-22T10:23:52;26.90;56.40
28763;DHT22;15918;51.270;6.522;2023-06-22T10:26:18;26.90;56.40
28763;DHT22;15918;51.270;6.522;2023-06-22T10:28:43;26.90;56.30
28763;DHT22;15918;51.270;6.522;2023-06-22T10:31:09;26.90;56.20
28763;DHT22;15918;51.270;6.522;2023-06-22T10:33:34;26.90;56.20
28763;DHT22;15918;51.270;6.522;2023-06-22T10:36:00;27.00;56.10
28763;DHT22;15918;51.270;6.522;2023-06-22T10:38:25;26.90;56.00
28763;DHT22;15918;51.270;6.522;2023-06-22T10:40:51;27.00;56.10
28763;DHT22;15918;51.270;6.522;2023-06-22T10:43:17;27.00;55.90
28763;DHT22;15918;51.270;6.522;2023-06-22T10:45:42;27.00;56.00
28763;DHT22;15918;51.270;6.522;2023-06-22T10:48:08;27.00;55.90
28763;DHT22;15918;51.270;6.522;2023-06-22T10:50:34;27.00;55.80
28763;DHT22;15918;51.270;6.522;2023-06-22T10:52:59;27.00;55.80
28763;DHT22;15918;51.270;6.522;2023-06-22T10:55:25;27.00;55.80
28763;DHT22;15918;51.270;6.522;2023-06-22T10:57:50;27.00;55.90
28763;DHT22;15918;51.270;6.522;2023-06-22T11:00:17;27.00;56.00
28763;DHT22;15918;51.270;6.522;2023-06-22T11:02:43;27.00;56.10
28763;DHT22;15918;51.270;6.522;2023-06-22T11:05:09;27.00;56.50
28763;DHT22;15918;51.270;6.522;2023-06-22T11:07:34;27.00;56.70
28763;DHT22;15918;51.270;6.522;2023-06-22T11:10:00;27.00;56.90
28763;DHT22;15918;51.270;6.522;2023-06-22T11:12:25;27.00;57.90
28763;DHT22;15918;51.270;6.522;2023-06-22T11:14:51;26.90;57.60
28763;DHT22;15918;51.270;6.522;2023-06-22T11:17:17;26.90;58.50
28763;DHT22;15918;51.270;6.522;2023-06-22T11:19:44;26.90;59.10
28763;DHT22;15918;51.270;6.522;2023-06-22T11:22:10;26.90;59.70
28763;DHT22;15918;51.270;6.522;2023-06-22T11:24:35;26.90;60.00
28763;DHT22;15918;51.270;6.522;2023-06-22T11:27:01;26.90;60.30
28763;DHT22;15918;51.270;6.522;2023-06-22T11:29:26;26.90;60.20
28763;DHT22;15918;51.270;6.522;2023-06-22T11:31:52;26.90;60.50
28763;DHT22;15918;51.270;6.522;2023-06-22T11:34:18;26.80;60.80
28763;DHT22;15918;51.270;6.522;2023-06-22T11:36:44;26.80;61.10
28763;DHT22;15918;51.270;6.522;2023-06-22T11:39:10;26.90;61.20
28763;DHT22;15918;51.270;6.522;2023-06-22T11:41:36;26.80;61.30
28763;DHT22;15918;51.270;6.522;2023-06-22T11:44:02;26.80;62.10
28763;DHT22;15918;51.270;6.522;2023-06-22T11:46:29;26.80;61.70
28763;DHT22;15918;51.270;6.522;2023-06-22T11:48:55;26.80;61.80
28763;DHT22;15918;51.270;6.522;2023-06-22T11:51:21;26.70;61.70
28763;DHT22;15918;51.270;6.522;2023-06-22T11:53:46;26.70;61.60
28763;DHT22;15918;51.270;6.522;2023-06-22T11:56:12;26.80;61.90
28763;DHT22;15918;51.270;6.522;2023-06-22T11:58:37;26.70;61.90
28763;DHT22;15918;51.270;6.522;2023-06-22T12:01:03;26.70;61.90
28763;DHT22;15918;51.270;6.522;2023-06-22T12:03:30;26.70;62.10
28763;DHT22;15918;51.270;6.522;2023-06-22T12:05:55;26.70;62.10
28763;DHT22;15918;51.270;6.522;2023-06-22T12:08:21;26.70;62.20
28763;DHT22;15918;51.270;6.522;2023-06-22T12:10:47;26.70;62.60
28763;DHT22;15918;51.270;6.522;2023-06-22T12:13:12;26.70;62.40
28763;DHT22;15918;51.270;6.522;2023-06-22T12:15:38;26.70;62.50
28763;DHT22;15918;51.270;6.522;2023-06-22T12:18:04;26.60;62.30
28763;DHT22;15918;51.270;6.522;2023-06-22T12:20:29;26.60;62.30
28763;DHT22;15918;51.270;6.522;2023-06-22T12:22:55;26.70;62.60
28763;DHT22;15918;51.270;6.522;2023-06-22T12:25:23;26.60;62.70
28763;DHT22;15918;51.270;6.522;2023-06-22T12:27:49;26.60;62.80
28763;DHT22;15918;51.270;6.522;2023-06-22T12:30:16;26.60;62.80
28763;DHT22;15918;51.270;6.522;2023-06-22T12:32:42;26.60;62.90
28763;DHT22;15918;51.270;6.522;2023-06-22T12:35:08;26.60;63.00
28763;DHT22;15918;51.270;6.522;2023-06-22T12:37:40;26.60;63.20
28763;DHT22;15918;51.270;6.522;2023-06-22T12:40:06;26.60;63.20
28763;DHT22;15918;51.270;6.522;2023-06-22T12:42:32;26.60;63.50
28763;DHT22;15918;51.270;6.522;2023-06-22T12:44:57;26.70;63.50
28763;DHT22;15918;51.270;6.522;2023-06-22T12:47:23;26.70;63.30
28763;DHT22;15918;51.270;6.522;2023-06-22T12:49:48;26.60;63.20
28763;DHT22;15918;51.270;6.522;2023-06-22T12:52:14;26.60;63.50
28763;DHT22;15918;51.270;6.522;2023-06-22T12:54:39;26.60;63.30
28763;DHT22;15918;51.270;6.522;2023-06-22T12:57:05;26.60;63.50
28763;DHT22;15918;51.270;6.522;2023-06-22T12:59:31;26.60;63.50
28763;DHT22;15918;51.270;6.522;2023-06-22T13:01:57;26.60;63.60
28763;DHT22;15918;51.270;6.522;2023-06-22T13:04:22;26.70;63.50
28763;DHT22;15918;51.270;6.522;2023-06-22T13:06:48;26.60;63.20
28763;DHT22;15918;51.270;6.522;2023-06-22T13:09:14;26.60;63.60
28763;DHT22;15918;51.270;6.522;2023-06-22T13:11:41;26.70;63.80
28763;DHT22;15918;51.270;6.522;2023-06-22T13:14:07;26.60;64.40
28763;DHT22;15918;51.270;6.522;2023-06-22T13:16:32;26.60;63.70
28763;DHT22;15918;51.270;6.522;2023-06-22T13:18:58;26.60;63.50
28763;DHT22;15918;51.270;6.522;2023-06-22T13:21:24;26.60;63.30
28763;DHT22;15918;51.270;6.522;2023-06-22T13:23:49;26.60;63.30
28763;DHT22;15918;51.270;6.522;2023-06-22T13:26:15;26.60;63.50
28763;DHT22;15918;51.270;6.522;2023-06-22T13:28:40;26.60;63.70
28763;DHT22;15918;51.270;6.522;2023-06-22T13:31:06;26.60;63.70
28763;DHT22;15918;51.270;6.522;2023-06-22T13:33:31;26.60;63.90
28763;DHT22;15918;51.270;6.522;2023-06-22T13:35:57;26.60;63.80
28763;DHT22;15918;51.270;6.522;2023-06-22T13:38:22;26.60;63.90
28763;DHT22;15918;51.270;6.522;2023-06-22T13:40:49;26.60;64.10
28763;DHT22;15918;51.270;6.522;2023-06-22T13:43:14;26.60;64.00
28763;DHT22;15918;51.270;6.522;2023-06-22T13:45:41;26.60;64.00
28763;DHT22;15918;51.270;6.522;2023-06-22T13:48:07;26.60;63.90
28763;DHT22;15918;51.270;6.522;2023-06-22T13:50:32;26.60;63.90
28763;DHT22;15918;51.270;6.522;2023-06-22T13:52:58;26.60;64.00
28763;DHT22;15918;51.270;6.522;2023-06-22T13:55:24;26.60;63.80
28763;DHT22;15918;51.270;6.522;2023-06-22T13:57:49;26.60;63.70
28763;DHT22;15918;51.270;6.522;2023-06-22T14:00:16;26.60;64.00
28763;DHT22;15918;51.270;6.522;2023-06-22T14:02:42;26.60;63.90
28763;DHT22;15918;51.270;6.522;2023-06-22T14:05:08;26.60;64.10
28763;DHT22;15918;51.270;6.522;2023-06-22T14:07:34;26.60;64.00
28763;DHT22;15918;51.270;6.522;2023-06-22T14:10:00;26.70;64.00
28763;DHT22;15918;51.270;6.522;2023-06-22T14:12:26;26.60;63.90
28763;DHT22;15918;51.270;6.522;2023-06-22T14:14:52;26.60;63.80
28763;DHT22;15918;51.270;6.522;2023-06-22T14:17:18;26.60;63.80
28763;DHT22;15918;51.270;6.522;2023-06-22T14:19:49;26.60;63.70
28763;DHT22;15918;51.270;6.522;2023-06-22T14:22:15;26.60;63.90
28763;DHT22;15918;51.270;6.522;2023-06-22T14:24:40;26.60;63.70
28763;DHT22;15918;51.270;6.522;2023-06-22T14:27:06;26.60;63.70
28763;DHT22;15918;51.270;6.522;2023-06-22T14:29:34;26.60;63.70
28763;DHT22;15918;51.270;6.522;2023-06-22T14:31:59;26.60;63.70
28763;DHT22;15918;51.270;6.522;2023-06-22T14:34:25;26.60;63.70
28763;DHT22;15918;51.270;6.522;2023-06-22T14:36:51;26.60;63.70
28763;DHT22;15918;51.270;6.522;2023-06-22T14:39:16;26.60;63.70
28763;DHT22;15918;51.270;6.522;2023-06-22T14:41:42;26.60;63.50
28763;DHT22;15918;51.270;6.522;2023-06-22T14:44:07;26.60;63.50
28763;DHT22;15918;51.270;6.522;2023-06-22T14:46:33;26.60;63.40
28763;DHT22;15918;51.270;6.522;2023-06-22T14:48:59;26.60;63.50
28763;DHT22;15918;51.270;6.522;2023-06-22T14:51:24;26.60;63.50
28763;DHT22;15918;51.270;6.522;2023-06-22T14:53:50;26.60;63.40
28763;DHT22;15918;51.270;6.522;2023-06-22T14:56:15;26.60;63.30
28763;DHT22;15918;51.270;6.522;2023-06-22T14:58:42;26.50;63.40
28763;DHT22;15918;51.270;6.522;2023-06-22T15:01:11;26.50;63.50
28763;DHT22;15918;51.270;6.522;2023-06-22T15:03:37;26.50;64.40
28763;DHT22;15918;51.270;6.522;2023-06-22T15:06:03;26.60;63.60
28763;DHT22;15918;51.270;6.522;2023-06-22T15:08:29;26.50;63.40
28763;DHT22;15918;51.270;6.522;2023-06-22T15:10:57;26.50;63.40
28763;DHT22;15918;51.270;6.522;2023-06-22T15:13:23;26.50;63.30
28763;DHT22;15918;51.270;6.522;2023-06-22T15:15:50;26.50;63.30
28763;DHT22;15918;51.270;6.522;2023-06-22T15:18:16;26.50;63.10
28763;DHT22;15918;51.270;6.522;2023-06-22T15:20:42;26.50;63.10
28763;DHT22;15918;51.270;6.522;2023-06-22T15:23:11;26.50;62.90
28763;DHT22;15918;51.270;6.522;2023-06-22T15:25:37;26.50;63.00
28763;DHT22;15918;51.270;6.522;2023-06-22T15:28:03;26.50;62.90
28763;DHT22;15918;51.270;6.522;2023-06-22T15:30:29;26.50;62.90
28763;DHT22;15918;51.270;6.522;2023-06-22T15:32:54;26.50;63.00
28763;DHT22;15918;51.270;6.522;2023-06-22T15:35:22;26.50;62.80